Time;durP1;ratioP1;P1;durP2;ratioP2;P2;SDS_P1;SDS_P2;PMS_P1;PMS_P2;Temp;Humidity;BMP_temperature;BMP_pressure;BME280_temperature;BME280_humidity;BME280_pressure;Samples;Min_cycle;Max_cycle;Signal;HPM_P1;HPM_P2
2023/06/13 00:02:17;;;;;;;3.38;1.48;;;15.40;48.50;;;;;;5020895;28;20754;-81
2023/06/13 00:04:45;;;;;;;2.25;1.40;;;15.30;48.60;;;;;;5021191;28;20225;-81
2023/06/13 00:07:12;;;;;;;1.60;1.50;;;15.30;48.80;;;;;;5020504;28;20220;-80
2023/06/13 00:09:39;;;;;;;2.40;1.20;;;15.20;49.10;;;;;;5016225;28;20749;-80
2023/06/13 00:12:09;;;;;;;5.20;1.40;;;15.10;49.50;;;;;;5037481;28;20294;-79
2023/06/13 00:14:37;;;;;;;2.03;1.20;;;15.10;49.60;;;;;;5021527;28;20228;-80
2023/06/13 00:17:04;;;;;;;1.92;1.15;;;15.00;49.90;;;;;;5022339;28;20240;-81
2023/06/13 00:19:31;;;;;;;2.10;1.17;;;14.90;50.50;;;;;;5021334;28;20316;-81
2023/06/13 00:21:58;;;;;;;2.07;1.23;;;14.90;50.10;;;;;;5024938;28;20225;-81
2023/06/13 00:24:25;;;;;;;3.17;1.63;;;14.80;50.20;;;;;;5021699;28;20568;-81
2023/06/13 00:26:52;;;;;;;3.20;1.30;;;14.70;50.30;;;;;;5021397;28;20342;-81
2023/06/13 00:29:18;;;;;;;4.25;1.60;;;14.70;50.30;;;;;;5023603;28;20240;-81
2023/06/13 00:31:48;;;;;;;1.95;1.30;;;14.60;50.40;;;;;;5030040;28;20229;-81
2023/06/13 00:34:15;;;;;;;2.25;1.55;;;14.50;50.60;;;;;;5023285;28;20314;-80
2023/06/13 00:36:43;;;;;;;2.05;1.40;;;14.50;50.80;;;;;;5039874;28;20285;-79
2023/06/13 00:39:11;;;;;;;2.67;1.30;;;14.40;50.90;;;;;;5025701;28;20299;-80
2023/06/13 00:41:38;;;;;;;2.20;1.30;;;14.40;51.10;;;;;;5025980;28;20278;-79
2023/06/13 00:44:06;;;;;;;4.20;1.45;;;14.30;51.20;;;;;;5020312;28;20216;-80
2023/06/13 00:46:35;;;;;;;3.05;1.30;;;14.20;51.50;;;;;;5024127;28;20229;-81
2023/06/13 00:49:05;;;;;;;2.05;1.38;;;14.20;51.50;;;;;;5024947;28;20307;-80
2023/06/13 00:51:35;;;;;;;3.53;1.47;;;14.10;51.70;;;;;;5038328;28;20248;-80
2023/06/13 00:54:06;;;;;;;3.07;1.20;;;14.10;51.90;;;;;;5025756;28;20224;-81
2023/06/13 00:56:34;;;;;;;2.22;1.40;;;14.00;52.10;;;;;;5040615;28;20233;-80
2023/06/13 00:59:03;;;;;;;3.60;1.60;;;14.00;52.20;;;;;;5025152;28;20235;-80
2023/06/13 01:01:30;;;;;;;3.57;1.60;;;13.90;52.50;;;;;;5024735;28;20274;-80
2023/06/13 01:03:59;;;;;;;2.70;1.70;;;13.90;52.60;;;;;;5025237;28;20220;-80
2023/06/13 01:06:29;;;;;;;4.50;1.40;;;13.80;53.00;;;;;;5026108;28;20256;-80
2023/06/13 01:09:00;;;;;;;1.97;1.37;;;13.80;53.40;;;;;;5024329;28;20235;-80
2023/06/13 01:11:35;;;;;;;2.37;1.70;;;13.70;53.50;;;;;;5024226;28;20217;-80
2023/06/13 01:14:08;;;;;;;1.63;1.43;;;13.70;54.00;;;;;;5022410;28;20217;-80
2023/06/13 01:16:43;;;;;;;3.30;1.60;;;13.60;53.80;;;;;;5038903;28;20223;-80
2023/06/13 01:19:23;;;;;;;2.30;1.53;;;13.60;54.10;;;;;;5041114;28;20307;-79
2023/06/13 01:21:53;;;;;;;3.70;1.67;;;13.50;54.40;;;;;;5021446;28;20753;-79
2023/06/13 01:24:34;;;;;;;4.53;1.50;;;13.50;54.50;;;;;;5026016;28;20963;-79
2023/06/13 01:27:05;;;;;;;3.35;1.42;;;13.50;54.90;;;;;;5039280;28;20611;-80
2023/06/13 01:29:34;;;;;;;2.33;1.50;;;13.40;54.80;;;;;;5033426;28;20231;-80
2023/06/13 01:32:02;;;;;;;2.00;1.40;;;13.40;55.30;;;;;;5025546;28;20344;-81
2023/06/13 01:34:30;;;;;;;4.07;1.50;;;13.30;55.40;;;;;;5021908;28;20299;-80
2023/06/13 01:36:58;;;;;;;3.00;1.50;;;13.30;55.50;;;;;;5026700;28;20232;-81
2023/06/13 01:39:25;;;;;;;3.83;2.10;;;13.30;55.70;;;;;;5024963;28;20970;-80
2023/06/13 01:41:52;;;;;;;3.27;1.67;;;13.20;56.00;;;;;;5019220;28;20228;-81
2023/06/13 01:44:21;;;;;;;3.17;1.67;;;13.20;56.20;;;;;;5022519;28;20220;-81
2023/06/13 01:46:56;;;;;;;2.03;1.70;;;13.10;56.50;;;;;;5024597;28;20238;-80
2023/06/13 01:49:39;;;;;;;2.67;1.60;;;13.10;56.70;;;;;;5040790;28;20232;-80
2023/06/13 01:52:25;;;;;;;2.90;1.63;;;13.10;56.80;;;;;;5024181;28;20935;-80
2023/06/13 01:55:00;;;;;;;2.37;1.50;;;13.00;57.00;;;;;;5022759;28;20277;-80
2023/06/13 01:57:32;;;;;;;3.37;1.60;;;13.00;57.10;;;;;;5021409;28;20235;-80
2023/06/13 02:00:01;;;;;;;2.63;1.57;;;12.90;57.20;;;;;;5020956;28;20228;-79
2023/06/13 02:02:29;;;;;;;7.13;2.07;;;12.90;57.50;;;;;;5039382;28;20691;-80
2023/06/13 02:04:56;;;;;;;3.73;1.70;;;12.80;57.60;;;;;;5023372;28;20679;-79
2023/06/13 02:07:24;;;;;;;2.90;1.90;;;12.80;58.00;;;;;;5037557;28;20797;-80
2023/06/13 02:09:51;;;;;;;3.40;1.90;;;12.70;58.50;;;;;;5022865;28;20241;-80
2023/06/13 02:12:18;;;;;;;2.53;1.87;;;12.70;58.60;;;;;;5038840;28;20221;-80
2023/06/13 02:14:45;;;;;;;3.43;1.80;;;12.70;58.90;;;;;;5023768;28;20223;-80
2023/06/13 02:17:14;;;;;;;4.20;1.97;;;12.60;59.10;;;;;;5038585;28;20229;-80
2023/06/13 02:19:41;;;;;;;6.27;2.00;;;12.60;59.50;;;;;;5035915;28;20796;-81
2023/06/13 02:22:08;;;;;;;5.33;2.00;;;12.50;59.70;;;;;;5023592;28;20231;-80
2023/06/13 02:24:36;;;;;;;1.83;1.60;;;12.50;59.90;;;;;;5039823;28;20245;-81
2023/06/13 02:27:03;;;;;;;5.77;2.13;;;12.50;60.20;;;;;;5019922;28;20329;-81
2023/06/13 02:29:31;;;;;;;3.27;1.90;;;12.40;60.60;;;;;;5036846;28;20218;-81
2023/06/13 02:31:58;;;;;;;2.83;2.10;;;12.40;61.00;;;;;;5024940;28;20289;-80
2023/06/13 02:34:26;;;;;;;3.33;2.30;;;12.40;61.50;;;;;;5025110;28;20231;-80
2023/06/13 02:36:52;;;;;;;4.23;2.00;;;12.30;62.20;;;;;;5024682;28;20225;-80
2023/06/13 02:39:19;;;;;;;2.30;1.73;;;12.30;62.60;;;;;;5038952;28;20914;-81
2023/06/13 02:41:46;;;;;;;2.67;1.80;;;12.20;63.30;;;;;;5022133;28;20233;-80
2023/06/13 02:44:13;;;;;;;5.37;2.17;;;12.20;64.10;;;;;;5018080;28;20245;-80
2023/06/13 02:46:40;;;;;;;3.57;1.83;;;12.20;64.50;;;;;;5036298;28;20240;-80
2023/06/13 02:49:07;;;;;;;4.03;2.20;;;12.10;65.20;;;;;;5020819;28;20228;-85
2023/06/13 02:51:35;;;;;;;4.57;1.90;;;12.10;65.90;;;;;;5037916;28;20226;-83
2023/06/13 02:54:02;;;;;;;4.30;1.90;;;12.10;66.70;;;;;;5020098;28;20224;-84
2023/06/13 02:56:29;;;;;;;3.40;2.00;;;12.10;67.50;;;;;;5021204;28;20317;-85
2023/06/13 02:58:56;;;;;;;6.10;2.50;;;12.00;68.40;;;;;;5018331;28;20226;-85
2023/06/13 03:01:23;;;;;;;2.90;2.10;;;12.00;69.00;;;;;;5020479;28;20231;-83
2023/06/13 03:03:51;;;;;;;4.87;2.07;;;12.00;70.10;;;;;;5020081;28;20249;-84
2023/06/13 03:06:18;;;;;;;3.67;2.20;;;12.00;70.80;;;;;;5016181;28;20223;-84
2023/06/13 03:08:51;;;;;;;6.30;2.70;;;12.00;71.60;;;;;;5035454;28;20239;-84
2023/06/13 03:11:18;;;;;;;3.97;2.40;;;11.90;73.10;;;;;;5021540;28;20614;-84
2023/06/13 03:13:46;;;;;;;5.37;2.30;;;11.90;73.30;;;;;;5023600;28;20220;-83
2023/06/13 03:16:12;;;;;;;5.20;2.50;;;11.90;74.60;;;;;;5020926;28;20757;-83
2023/06/13 03:18:40;;;;;;;3.50;2.23;;;11.90;75.20;;;;;;5020088;28;20226;-83
2023/06/13 03:21:07;;;;;;;4.77;2.10;;;11.80;76.00;;;;;;5020919;28;20222;-83
2023/06/13 03:23:34;;;;;;;3.03;2.03;;;11.80;77.20;;;;;;5037190;28;20229;-83
2023/06/13 03:26:03;;;;;;;2.93;1.90;;;11.80;78.20;;;;;;5020244;28;20234;-83
2023/06/13 03:28:31;;;;;;;3.70;2.13;;;11.80;79.80;;;;;;5021295;28;20329;-83
2023/06/13 03:31:00;;;;;;;4.80;2.77;;;11.80;81.00;;;;;;5021265;28;20225;-83
2023/06/13 03:33:27;;;;;;;3.40;2.37;;;11.80;82.60;;;;;;5020357;28;20231;-84
2023/06/13 03:35:55;;;;;;;4.10;2.83;;;11.80;83.00;;;;;;5019141;28;20227;-84
2023/06/13 03:38:23;;;;;;;4.03;2.33;;;11.80;84.30;;;;;;5015870;28;20435;-84
2023/06/13 03:40:50;;;;;;;3.27;2.33;;;11.80;85.60;;;;;;5022127;28;20258;-83
2023/06/13 03:43:19;;;;;;;4.67;2.53;;;11.80;87.10;;;;;;5018401;28;20216;-82
2023/06/13 03:45:48;;;;;;;4.20;2.33;;;11.80;88.70;;;;;;5019994;28;20747;-82
2023/06/13 03:48:15;;;;;;;5.00;2.43;;;11.80;89.60;;;;;;5034229;28;20914;-82
2023/06/13 03:50:42;;;;;;;4.03;2.63;;;11.80;90.50;;;;;;5036260;28;20680;-82
2023/06/13 03:53:09;;;;;;;4.20;2.90;;;11.80;91.20;;;;;;5021819;28;20246;-82
2023/06/13 03:55:36;;;;;;;4.43;2.70;;;11.90;91.80;;;;;;5016299;28;20215;-82
2023/06/13 03:58:04;;;;;;;3.80;2.30;;;11.90;92.40;;;;;;5031660;28;20226;-84
2023/06/13 04:00:33;;;;;;;5.40;2.47;;;11.90;93.00;;;;;;5018147;28;20246;-84
2023/06/13 04:03:01;;;;;;;5.27;2.50;;;11.90;93.30;;;;;;5032526;28;20310;-82
2023/06/13 04:05:28;;;;;;;4.20;2.50;;;12.00;93.70;;;;;;5021503;28;20974;-82
2023/06/13 04:07:55;;;;;;;7.00;2.47;;;12.00;94.10;;;;;;5023437;28;20760;-82
2023/06/13 04:10:22;;;;;;;4.50;2.60;;;12.00;94.40;;;;;;5026209;28;20227;-82
2023/06/13 04:12:49;;;;;;;4.83;2.50;;;12.00;94.70;;;;;;5023400;28;20782;-84
2023/06/13 04:15:16;;;;;;;4.23;2.47;;;12.00;95.10;;;;;;5019982;28;20283;-82
2023/06/13 04:17:44;;;;;;;5.40;3.10;;;12.10;95.40;;;;;;5026257;28;20622;-82
2023/06/13 04:20:14;;;;;;;4.80;2.23;;;12.10;95.90;;;;;;5023528;28;20690;-82
2023/06/13 04:22:42;;;;;;;5.97;2.50;;;12.20;96.00;;;;;;5025228;28;20280;-82
2023/06/13 04:25:10;;;;;;;5.53;2.67;;;12.20;96.10;;;;;;5041314;28;20246;-79
2023/06/13 04:27:38;;;;;;;3.13;2.33;;;12.30;96.40;;;;;;5023600;28;20265;-78
2023/06/13 04:30:06;;;;;;;3.60;2.40;;;12.30;96.60;;;;;;5026717;28;20242;-82
2023/06/13 04:32:34;;;;;;;3.00;2.20;;;12.40;96.90;;;;;;5019557;28;20226;-86
2023/06/13 04:35:03;;;;;;;6.60;2.40;;;12.40;97.10;;;;;;5024714;28;21218;-82
2023/06/13 04:37:30;;;;;;;3.67;2.57;;;12.40;97.70;;;;;;5031911;28;20262;-81
2023/06/13 04:39:58;;;;;;;3.20;2.20;;;12.40;97.60;;;;;;5026418;28;20223;-83
2023/06/13 04:42:27;;;;;;;4.43;2.47;;;12.40;98.00;;;;;;5025574;28;20240;-83
2023/06/13 04:44:56;;;;;;;4.20;2.40;;;12.50;98.20;;;;;;5025612;28;20225;-82
2023/06/13 04:47:23;;;;;;;4.17;2.40;;;12.50;98.40;;;;;;5040002;28;20850;-81
2023/06/13 04:49:51;;;;;;;5.07;2.90;;;12.50;98.60;;;;;;5026940;28;20257;-82
2023/06/13 04:52:23;;;;;;;3.83;2.40;;;12.60;98.80;;;;;;5029055;28;20231;-81
2023/06/13 04:54:52;;;;;;;4.77;2.10;;;12.60;99.00;;;;;;5026128;28;20274;-81
2023/06/13 04:57:18;;;;;;;5.63;2.50;;;12.70;99.10;;;;;;5022150;28;20234;-82
2023/06/13 04:59:46;;;;;;;3.23;2.53;;;12.70;99.00;;;;;;5020831;28;20247;-81
2023/06/13 05:02:14;;;;;;;4.83;2.47;;;12.80;99.30;;;;;;5025748;28;20227;-83
2023/06/13 05:04:42;;;;;;;4.37;2.33;;;12.80;99.60;;;;;;5022563;28;20229;-83
2023/06/13 05:07:08;;;;;;;3.53;2.40;;;12.80;99.40;;;;;;5023889;28;20793;-82
2023/06/13 05:09:37;;;;;;;4.67;2.43;;;12.90;99.60;;;;;;5023074;28;20319;-80
2023/06/13 05:12:06;;;;;;;4.73;2.67;;;12.90;99.80;;;;;;5020576;28;20315;-83
2023/06/13 05:14:32;;;;;;;4.80;2.70;;;13.00;99.90;;;;;;5024078;28;20235;-83
2023/06/13 05:17:01;;;;;;;6.27;2.90;;;13.00;99.90;;;;;;5022639;28;20238;-78
2023/06/13 05:19:28;;;;;;;6.27;2.83;;;13.10;99.90;;;;;;5024106;28;20231;-83
2023/06/13 05:21:55;;;;;;;6.97;2.90;;;13.10;99.90;;;;;;5025393;28;20231;-83
2023/06/13 05:24:22;;;;;;;5.30;2.80;;;13.20;99.90;;;;;;5025132;28;20286;-84
2023/06/13 05:26:51;;;;;;;4.57;2.60;;;13.20;99.90;;;;;;5025871;28;20345;-84
2023/06/13 05:29:18;;;;;;;5.37;2.70;;;13.30;99.90;;;;;;5021717;28;20941;-83
2023/06/13 05:31:44;;;;;;;5.63;2.60;;;13.30;99.90;;;;;;5024719;28;20227;-85
2023/06/13 05:34:11;;;;;;;6.70;3.10;;;13.40;99.90;;;;;;5039400;28;20330;-84
2023/06/13 05:36:38;;;;;;;5.40;2.77;;;13.40;99.90;;;;;;5027961;28;20304;-83
2023/06/13 05:39:04;;;;;;;4.60;2.77;;;13.50;99.90;;;;;;5020417;28;20262;-83
2023/06/13 05:41:32;;;;;;;6.23;3.57;;;13.50;99.90;;;;;;5025737;28;20287;-83
2023/06/13 05:44:01;;;;;;;8.60;2.87;;;13.60;99.90;;;;;;5020073;28;20236;-83
2023/06/13 05:46:27;;;;;;;6.37;2.97;;;13.60;99.90;;;;;;5026529;28;20641;-83
2023/06/13 05:48:54;;;;;;;6.90;2.80;;;13.70;99.90;;;;;;5021525;28;20226;-84
2023/06/13 05:51:21;;;;;;;5.07;2.77;;;13.70;99.90;;;;;;5039399;28;20255;-83
2023/06/13 05:53:48;;;;;;;6.15;3.03;;;13.80;99.90;;;;;;5015709;28;20232;-84
2023/06/13 05:56:15;;;;;;;6.33;2.60;;;13.90;99.90;;;;;;5015815;28;20755;-83
2023/06/13 05:58:42;;;;;;;5.87;2.90;;;14.00;99.90;;;;;;5021325;28;20239;-84
2023/06/13 06:01:10;;;;;;;5.47;2.60;;;14.00;99.90;;;;;;5013353;28;20217;-83
2023/06/13 06:03:37;;;;;;;4.07;3.00;;;14.00;99.90;;;;;;5034098;28;20221;-84
2023/06/13 06:06:04;;;;;;;7.38;2.75;;;14.10;99.90;;;;;;5026300;28;20741;-86
2023/06/13 06:08:31;;;;;;;7.05;3.00;;;14.20;99.90;;;;;;5028844;28;20869;-83
2023/06/13 06:10:58;;;;;;;5.63;2.78;;;14.30;99.90;;;;;;5026327;28;20674;-83
2023/06/13 06:13:24;;;;;;;6.85;2.53;;;14.30;99.90;;;;;;5028180;28;20695;-85
2023/06/13 06:15:51;;;;;;;5.80;2.70;;;14.40;99.90;;;;;;5031396;28;20332;-84
2023/06/13 06:18:21;;;;;;;5.72;2.65;;;14.50;99.90;;;;;;5018569;28;20264;-83
2023/06/13 06:20:48;;;;;;;6.63;2.50;;;14.60;99.90;;;;;;5027905;28;20248;-83
2023/06/13 06:23:15;;;;;;;3.57;2.07;;;14.60;99.90;;;;;;5024749;28;20231;-84
2023/06/13 06:25:41;;;;;;;5.93;2.60;;;14.70;99.90;;;;;;5026600;28;20283;-83
2023/06/13 06:28:09;;;;;;;5.20;2.47;;;14.70;99.90;;;;;;5021624;28;20209;-85
2023/06/13 06:30:36;;;;;;;6.07;2.50;;;14.90;99.90;;;;;;5026778;28;20216;-82
2023/06/13 06:33:03;;;;;;;5.15;2.17;;;14.90;99.90;;;;;;5027371;28;20225;-86
2023/06/13 06:35:31;;;;;;;5.65;2.35;;;15.00;99.90;;;;;;5028711;28;20225;-83
2023/06/13 06:37:58;;;;;;;4.82;2.25;;;15.20;99.90;;;;;;5023472;28;20315;-83
2023/06/13 06:40:24;;;;;;;5.10;2.22;;;15.30;99.90;;;;;;5027772;28;20229;-83
2023/06/13 06:42:51;;;;;;;3.50;2.63;;;15.40;99.70;;;;;;5029839;28;20231;-84
2023/06/13 06:45:25;;;;;;;5.07;2.30;;;15.50;99.20;;;;;;5025471;28;21147;-84
2023/06/13 06:47:52;;;;;;;6.10;3.08;;;15.50;99.10;;;;;;5030653;28;20316;-83
2023/06/13 06:50:18;;;;;;;6.35;2.97;;;15.60;99.00;;;;;;5025788;28;20217;-83
2023/06/13 06:52:47;;;;;;;5.55;2.55;;;15.60;98.90;;;;;;5029152;28;20658;-83
2023/06/13 06:55:14;;;;;;;4.70;2.40;;;15.70;99.10;;;;;;5023885;28;20229;-84
2023/06/13 06:57:41;;;;;;;7.68;2.35;;;15.80;99.10;;;;;;5027259;28;20699;-84
2023/06/13 07:00:10;;;;;;;4.63;2.22;;;16.00;99.00;;;;;;5028131;28;20220;-83
2023/06/13 07:02:37;;;;;;;4.82;2.65;;;16.20;99.00;;;;;;5028274;28;20224;-84
2023/06/13 07:05:05;;;;;;;5.28;2.20;;;16.50;99.00;;;;;;5029480;28;20221;-83
2023/06/13 07:07:32;;;;;;;4.90;2.10;;;16.90;99.10;;;;;;5045543;28;20235;-83
2023/06/13 07:10:00;;;;;;;4.47;2.05;;;17.50;98.50;;;;;;5020688;28;20461;-83
2023/06/13 07:12:27;;;;;;;5.57;2.40;;;18.10;97.50;;;;;;5022230;28;20230;-82
2023/06/13 07:14:55;;;;;;;4.28;2.35;;;18.80;97.00;;;;;;5026090;28;20232;-80
2023/06/13 07:17:21;;;;;;;4.70;1.90;;;19.60;95.60;;;;;;5021545;28;20688;-81
2023/06/13 07:19:48;;;;;;;6.30;2.28;;;20.30;94.80;;;;;;5024095;28;20821;-80
2023/06/13 07:22:15;;;;;;;5.68;2.15;;;20.90;93.80;;;;;;5016429;28;20227;-82
2023/06/13 07:24:41;;;;;;;7.03;2.30;;;21.50;92.40;;;;;;5011392;28;20596;-83
2023/06/13 07:27:10;;;;;;;8.20;2.35;;;22.10;91.20;;;;;;5022685;28;20236;-83
2023/06/13 07:29:37;;;;;;;3.83;2.13;;;22.60;89.00;;;;;;5022341;28;20225;-80
2023/06/13 07:32:05;;;;;;;4.05;1.90;;;23.10;87.10;;;;;;5020536;28;20718;-81
2023/06/13 07:34:32;;;;;;;4.10;1.60;;;23.70;84.60;;;;;;5021590;28;20220;-82
2023/06/13 07:36:59;;;;;;;2.85;2.10;;;24.40;83.50;;;;;;5024088;28;20235;-81
2023/06/13 07:39:26;;;;;;;2.97;1.70;;;24.90;79.00;;;;;;5041713;28;20543;-81
2023/06/13 07:41:52;;;;;;;4.32;1.80;;;25.50;76.70;;;;;;5031727;28;20216;-81
2023/06/13 07:44:21;;;;;;;3.40;1.80;;;25.90;74.10;;;;;;5026108;28;20220;-81
2023/06/13 07:46:48;;;;;;;3.90;1.90;;;26.30;71.80;;;;;;5027775;28;20220;-81
2023/06/13 07:49:15;;;;;;;3.47;1.83;;;26.70;70.70;;;;;;5026006;28;20216;-81
2023/06/13 07:51:42;;;;;;;5.00;2.33;;;26.90;68.60;;;;;;5031527;28;20279;-81
2023/06/13 07:54:09;;;;;;;6.43;2.05;;;27.20;66.20;;;;;;5030607;28;20220;-82
2023/06/13 07:56:35;;;;;;;5.25;1.90;;;27.40;65.40;;;;;;5030375;28;20308;-82
2023/06/13 07:59:02;;;;;;;3.53;1.60;;;27.70;64.90;;;;;;5030953;28;20648;-81
2023/06/13 08:01:30;;;;;;;5.22;2.10;;;28.00;62.90;;;;;;5031224;28;20224;-82
2023/06/13 08:03:57;;;;;;;3.88;1.98;;;28.30;62.00;;;;;;5030471;28;20297;-81
2023/06/13 08:06:24;;;;;;;2.60;1.90;;;28.60;61.70;;;;;;5028197;28;20750;-81
2023/06/13 08:08:51;;;;;;;6.97;1.95;;;29.00;60.10;;;;;;5029735;28;20225;-80
2023/06/13 08:11:18;;;;;;;4.45;2.28;;;29.30;59.20;;;;;;5027886;28;20252;-81
2023/06/13 08:13:44;;;;;;;7.97;2.20;;;29.60;59.10;;;;;;5031621;28;20221;-82
2023/06/13 08:16:12;;;;;;;4.55;2.10;;;29.90;58.30;;;;;;5046556;28;20221;-83
2023/06/13 08:18:40;;;;;;;2.63;1.70;;;30.00;57.00;;;;;;5031754;28;20235;-81
2023/06/13 08:21:06;;;;;;;3.97;2.00;;;30.10;56.20;;;;;;5028396;28;20227;-82
2023/06/13 08:23:33;;;;;;;3.45;1.80;;;30.20;55.50;;;;;;5028107;28;20309;-83
2023/06/13 08:26:00;;;;;;;3.90;1.98;;;30.20;54.70;;;;;;5027067;28;20832;-83
2023/06/13 08:28:26;;;;;;;4.15;2.03;;;30.20;54.70;;;;;;5043369;28;20292;-82
2023/06/13 08:30:53;;;;;;;5.05;2.20;;;30.20;54.90;;;;;;5028400;28;20284;-81
2023/06/13 08:33:21;;;;;;;4.38;2.00;;;30.20;54.60;;;;;;5027787;28;20296;-81
2023/06/13 08:35:50;;;;;;;4.57;1.80;;;30.40;52.60;;;;;;5030792;28;20209;-82
2023/06/13 08:38:16;;;;;;;3.75;1.80;;;30.50;52.80;;;;;;5026895;28;20908;-82
2023/06/13 08:40:43;;;;;;;6.63;2.38;;;30.40;52.90;;;;;;5023748;28;20255;-81
2023/06/13 08:43:11;;;;;;;5.03;2.30;;;30.40;53.00;;;;;;5023868;28;20295;-81
2023/06/13 08:45:38;;;;;;;5.13;1.98;;;30.40;52.90;;;;;;5025693;28;20216;-81
2023/06/13 08:48:05;;;;;;;4.78;1.92;;;30.50;53.00;;;;;;5046072;23;20228;-79
2023/06/13 08:50:33;;;;;;;3.17;1.90;;;30.70;52.60;;;;;;5044280;28;20251;-79
2023/06/13 08:53:02;;;;;;;3.40;2.13;;;30.90;52.30;;;;;;5044563;28;20220;-80
2023/06/13 08:55:30;;;;;;;3.42;1.90;;;31.10;51.20;;;;;;5041224;28;20227;-79
2023/06/13 08:57:59;;;;;;;5.07;2.00;;;31.30;50.90;;;;;;5036851;28;20223;-79
2023/06/13 09:00:26;;;;;;;4.07;2.35;;;31.40;50.10;;;;;;5042590;28;20232;-78
2023/06/13 09:02:55;;;;;;;7.93;2.15;;;31.50;50.20;;;;;;5045967;28;20712;-79
2023/06/13 09:05:23;;;;;;;4.57;2.03;;;31.60;49.90;;;;;;5041932;28;20781;-79
2023/06/13 09:07:51;;;;;;;5.78;2.20;;;31.70;48.90;;;;;;5047423;28;20238;-79
2023/06/13 09:10:19;;;;;;;4.60;2.00;;;31.70;48.40;;;;;;5043991;28;20225;-79
2023/06/13 09:12:49;;;;;;;3.03;2.20;;;31.50;47.60;;;;;;5044013;28;20226;-79
2023/06/13 09:15:16;;;;;;;3.38;2.28;;;31.40;48.00;;;;;;5034629;28;20228;-79
2023/06/13 09:17:43;;;;;;;5.43;2.20;;;31.20;48.90;;;;;;5038183;28;20220;-79
2023/06/13 09:20:10;;;;;;;5.03;2.20;;;31.10;49.00;;;;;;5042847;28;20307;-79
2023/06/13 09:22:37;;;;;;;4.15;2.30;;;31.10;48.20;;;;;;5040189;28;20230;-79
2023/06/13 09:25:05;;;;;;;6.85;2.00;;;31.20;48.10;;;;;;5043206;28;20219;-79
2023/06/13 09:27:33;;;;;;;6.45;2.08;;;31.40;48.40;;;;;;5045372;28;20223;-79
2023/06/13 09:30:01;;;;;;;4.28;2.33;;;31.60;48.10;;;;;;5044469;28;20255;-79
2023/06/13 09:32:28;;;;;;;4.25;2.05;;;31.90;47.70;;;;;;5041367;28;20220;-79
2023/06/13 09:34:55;;;;;;;5.63;2.25;;;32.20;47.40;;;;;;5034868;28;20220;-79
2023/06/13 09:37:24;;;;;;;5.57;2.38;;;32.30;47.20;;;;;;5042018;28;20220;-79
2023/06/13 09:39:53;;;;;;;5.70;2.35;;;32.50;46.70;;;;;;5044616;28;20220;-79
2023/06/13 09:42:23;;;;;;;3.85;2.10;;;32.50;45.90;;;;;;5041475;28;20216;-79
2023/06/13 09:44:52;;;;;;;4.55;2.47;;;32.50;45.50;;;;;;5043200;28;20216;-80
2023/06/13 09:47:23;;;;;;;2.60;1.90;;;32.40;45.80;;;;;;5045782;28;20216;-79
2023/06/13 09:49:53;;;;;;;3.58;2.67;;;32.40;46.20;;;;;;5043703;28;20319;-79
2023/06/13 09:52:24;;;;;;;6.15;1.98;;;32.40;45.70;;;;;;5045697;28;20221;-79
2023/06/13 09:54:51;;;;;;;3.08;1.88;;;32.40;45.10;;;;;;5042995;28;20273;-80
2023/06/13 09:57:18;;;;;;;4.25;2.20;;;32.40;45.30;;;;;;5035680;28;20625;-79
2023/06/13 09:59:48;;;;;;;4.10;2.28;;;32.40;45.80;;;;;;5043403;28;20714;-79
2023/06/13 10:02:17;;;;;;;6.30;2.13;;;32.50;45.50;;;;;;5037610;28;20213;-79
2023/06/13 10:04:43;;;;;;;4.22;2.13;;;32.60;45.30;;;;;;5040956;28;20231;-79
2023/06/13 10:07:12;;;;;;;4.53;2.30;;;32.80;44.40;;;;;;5045446;28;20220;-79
2023/06/13 10:09:38;;;;;;;6.28;2.70;;;33.00;44.70;;;;;;5046125;28;21785;-79
2023/06/13 10:12:10;;;;;;;4.88;2.25;;;33.30;44.50;;;;;;5041825;28;20223;-79
2023/06/13 10:14:41;;;;;;;3.38;2.08;;;33.60;44.80;;;;;;5039171;28;20223;-79
2023/06/13 10:17:12;;;;;;;2.67;1.92;;;33.90;44.30;;;;;;5041999;28;20910;-80
2023/06/13 10:19:42;;;;;;;4.57;2.42;;;34.10;43.10;;;;;;5037961;28;21431;-80
2023/06/13 10:22:09;;;;;;;4.45;2.28;;;34.10;42.90;;;;;;5045739;28;20706;-80
2023/06/13 10:24:37;;;;;;;5.28;2.40;;;34.00;43.00;;;;;;5039428;28;20224;-80
2023/06/13 10:27:07;;;;;;;6.82;2.20;;;33.90;42.80;;;;;;5037535;28;20794;-80
2023/06/13 10:30:03;;;;;;;4.43;2.42;;;33.70;42.80;;;;;;5042827;28;20228;-80
2023/06/13 10:32:47;;;;;;;3.53;2.22;;;33.60;43.80;;;;;;5005118;28;20305;-79
2023/06/13 10:35:36;;;;;;;3.38;2.47;;;33.60;43.20;;;;;;5040659;28;20226;-79
2023/06/13 10:38:48;;;;;;;4.18;2.45;;;33.80;43.60;;;;;;5040290;28;20234;-79
2023/06/13 10:41:51;;;;;;;3.78;2.20;;;34.10;43.60;;;;;;5037927;28;20215;-78
2023/06/13 10:44:24;;;;;;;6.32;2.63;;;34.30;43.90;;;;;;4977055;28;20546;-79
2023/06/13 10:46:51;;;;;;;4.38;2.42;;;34.40;41.90;;;;;;5028200;28;20223;-79
2023/06/13 10:49:18;;;;;;;3.67;2.28;;;34.30;41.10;;;;;;5041058;28;20223;-79
2023/06/13 10:51:46;;;;;;;2.92;2.50;;;34.10;41.00;;;;;;5042076;28;20230;-78
2023/06/13 10:54:14;;;;;;;3.65;2.30;;;34.00;41.00;;;;;;5042624;28;20258;-78
2023/06/13 10:56:43;;;;;;;3.58;2.63;;;33.90;41.90;;;;;;5043240;28;20790;-79
2023/06/13 10:59:12;;;;;;;2.72;2.22;;;33.90;41.80;;;;;;5040162;28;20270;-79
2023/06/13 11:01:40;;;;;;;4.90;2.92;;;33.90;41.60;;;;;;5038348;28;20764;-78
2023/06/13 11:04:19;;;;;;;5.32;3.22;;;33.80;41.50;;;;;;5041537;28;20294;-79
2023/06/13 11:06:51;;;;;;;5.15;2.67;;;33.80;41.50;;;;;;5037961;28;20311;-79
2023/06/13 11:09:20;;;;;;;3.45;2.35;;;33.70;41.40;;;;;;5043505;28;20238;-79
2023/06/13 11:11:49;;;;;;;3.92;2.63;;;33.70;42.00;;;;;;5042277;28;20221;-79
2023/06/13 11:14:16;;;;;;;4.65;2.72;;;33.70;41.60;;;;;;5042968;28;20227;-79
2023/06/13 11:16:45;;;;;;;4.72;3.03;;;33.80;41.10;;;;;;5041578;28;20234;-79
2023/06/13 11:19:16;;;;;;;3.40;2.63;;;33.80;41.20;;;;;;5037491;28;20765;-78
2023/06/13 11:21:52;;;;;;;5.53;3.00;;;33.90;40.30;;;;;;5040872;28;21953;-79
2023/06/13 11:24:19;;;;;;;6.07;2.78;;;34.10;40.90;;;;;;5038606;28;20230;-79
2023/06/13 11:26:46;;;;;;;5.65;2.88;;;34.20;40.80;;;;;;5039877;28;20258;-78
2023/06/13 11:29:14;;;;;;;4.55;2.90;;;34.50;40.60;;;;;;5041104;28;20216;-79
2023/06/13 11:31:42;;;;;;;2.67;2.42;;;34.60;39.90;;;;;;5043150;28;21085;-79
2023/06/13 11:34:16;;;;;;;3.97;2.90;;;34.50;40.20;;;;;;5043448;28;20277;-79
2023/06/13 11:36:44;;;;;;;3.90;2.50;;;34.60;38.90;;;;;;5042078;28;20681;-79
2023/06/13 11:39:13;;;;;;;3.75;2.90;;;34.70;39.10;;;;;;5040364;28;20232;-79
2023/06/13 11:41:40;;;;;;;5.57;2.95;;;34.90;38.80;;;;;;5036945;28;20231;-79
2023/06/13 11:44:07;;;;;;;3.63;3.00;;;35.00;38.90;;;;;;5042978;28;20218;-79
2023/06/13 11:46:34;;;;;;;2.80;2.40;;;35.20;38.70;;;;;;5044573;28;20648;-79
2023/06/13 11:49:01;;;;;;;3.38;2.90;;;35.40;37.80;;;;;;5040214;28;20850;-79
2023/06/13 11:51:30;;;;;;;6.82;2.60;;;35.40;37.70;;;;;;5041945;28;20226;-78
2023/06/13 11:53:59;;;;;;;3.88;2.30;;;35.30;37.90;;;;;;5040496;28;20234;-79
2023/06/13 11:56:28;;;;;;;3.10;2.80;;;35.10;38.30;;;;;;5040289;28;20231;-79
2023/06/13 11:58:56;;;;;;;3.15;2.50;;;34.80;37.30;;;;;;5042003;28;20220;-78
2023/06/13 12:01:25;;;;;;;3.17;2.00;;;34.60;37.00;;;;;;5042395;28;20315;-78
2023/06/13 12:03:53;;;;;;;3.55;2.60;;;34.50;36.90;;;;;;5035713;28;20232;-78
2023/06/13 12:06:20;;;;;;;2.70;2.28;;;34.20;36.20;;;;;;5038444;28;20233;-78
2023/06/13 12:08:47;;;;;;;6.43;2.33;;;34.10;35.90;;;;;;5041982;28;20239;-79
2023/06/13 12:11:16;;;;;;;5.03;2.63;;;33.80;35.60;;;;;;5039312;28;20267;-79
2023/06/13 12:13:52;;;;;;;2.42;2.20;;;33.50;34.90;;;;;;5043199;28;20369;-79
2023/06/13 12:16:21;;;;;;;3.70;2.58;;;33.00;34.60;;;;;;5036732;28;20221;-78
2023/06/13 12:18:51;;;;;;;3.58;2.65;;;32.70;35.50;;;;;;5040851;28;20242;-78
2023/06/13 12:21:18;;;;;;;7.65;2.75;;;32.40;35.90;;;;;;5042599;28;20250;-78
2023/06/13 12:23:45;;;;;;;10.07;3.10;;;32.20;36.50;;;;;;5039602;28;20308;-79
2023/06/13 12:26:11;;;;;;;5.45;2.25;;;32.10;37.40;;;;;;5038349;28;20205;-79
2023/06/13 12:28:38;;;;;;;4.80;2.50;;;32.00;38.80;;;;;;5046775;28;20616;-79
2023/06/13 12:31:09;;;;;;;5.97;2.40;;;31.90;39.20;;;;;;5046429;28;20263;-79
2023/06/13 12:33:37;;;;;;;6.97;2.70;;;31.90;40.00;;;;;;5044558;28;20318;-78
2023/06/13 12:36:05;;;;;;;5.03;2.42;;;31.80;40.60;;;;;;5045647;28;20720;-79
2023/06/13 12:38:33;;;;;;;8.32;2.58;;;31.80;41.10;;;;;;5045887;28;20247;-79
2023/06/13 12:41:00;;;;;;;3.33;2.13;;;31.80;41.10;;;;;;5042448;28;20224;-79
2023/06/13 12:43:28;;;;;;;3.22;2.40;;;31.70;40.80;;;;;;5037288;28;20299;-79
2023/06/13 12:45:56;;;;;;;4.38;2.50;;;31.90;40.90;;;;;;5043128;28;20216;-79
2023/06/13 12:48:24;;;;;;;4.30;2.47;;;31.90;41.00;;;;;;5041448;28;20236;-79
2023/06/13 12:50:54;;;;;;;7.18;2.45;;;31.90;41.30;;;;;;5035566;28;20636;-79
2023/06/13 12:53:22;;;;;;;3.22;2.45;;;31.60;41.50;;;;;;5039212;28;20316;-79
2023/06/13 12:55:50;;;;;;;3.95;2.55;;;31.30;41.70;;;;;;5040450;28;20221;-79